createdAt,value
2018-03-19T00:00:55.862Z,-4.40
2018-03-19T00:03:24.215Z,-4.30
2018-03-19T00:05:52.502Z,-4.40
2018-03-19T00:08:21.076Z,-4.50
2018-03-19T00:10:49.679Z,-4.50
2018-03-19T00:13:17.995Z,-4.50
2018-03-19T00:15:46.282Z,-4.50
2018-03-19T00:18:14.602Z,-4.50
2018-03-19T00:20:42.878Z,-4.40
2018-03-19T00:23:11.371Z,-4.40
2018-03-19T00:25:39.654Z,-4.40
2018-03-19T00:28:08.011Z,-4.50
2018-03-19T00:30:36.359Z,-4.50
2018-03-19T00:33:04.882Z,-4.60
2018-03-19T00:35:33.762Z,-4.50
2018-03-19T00:38:02.285Z,-4.50
2018-03-19T00:40:31.672Z,-4.50
2018-03-19T00:43:00.814Z,-4.50
2018-03-19T00:45:29.930Z,-4.50
2018-03-19T00:47:59.135Z,-4.60
2018-03-19T00:50:28.231Z,-4.50
2018-03-19T00:52:56.656Z,-4.50
2018-03-19T00:55:24.942Z,-4.50
2018-03-19T00:57:53.263Z,-4.50
2018-03-19T01:00:21.594Z,-4.50
2018-03-19T01:02:50.684Z,-4.50
2018-03-19T01:05:20.010Z,-4.50
2018-03-19T01:07:48.301Z,-4.50
2018-03-19T01:10:16.586Z,-4.50
2018-03-19T01:12:44.906Z,-4.60
2018-03-19T01:15:13.195Z,-4.60
2018-03-19T01:17:41.515Z,-4.60
2018-03-19T01:20:09.835Z,-4.50
2018-03-19T01:22:38.154Z,-4.60
2018-03-19T01:25:06.504Z,-4.60
2018-03-19T01:27:34.903Z,-4.60
2018-03-19T01:30:03.414Z,-4.50
2018-03-19T01:32:32.027Z,-4.50
2018-03-19T01:35:00.632Z,-4.50
2018-03-19T01:37:29.775Z,-4.60
2018-03-19T01:39:58.115Z,-4.60
2018-03-19T01:42:27.171Z,-4.70
2018-03-19T01:44:55.495Z,-4.70
2018-03-19T01:47:23.830Z,-4.70
2018-03-19T01:49:52.155Z,-4.80
2018-03-19T01:55:14.202Z,-4.80
2018-03-19T01:57:42.527Z,-4.80
2018-03-19T02:02:45.483Z,-4.90
2018-03-19T02:05:13.811Z,-4.90
2018-03-19T02:07:42.882Z,-5.10
2018-03-19T02:10:11.283Z,-5.10
2018-03-19T02:12:39.598Z,-5.10
2018-03-19T02:15:07.891Z,-5.10
2018-03-19T02:17:36.398Z,-5.20
2018-03-19T02:20:04.896Z,-5.20
2018-03-19T02:22:33.799Z,-5.30
2018-03-19T02:25:02.598Z,-5.30
2018-03-19T02:27:31.106Z,-5.30
2018-03-19T02:29:59.427Z,-5.30
2018-03-19T02:32:27.747Z,-5.30
2018-03-19T02:34:56.156Z,-5.30
2018-03-19T02:37:24.455Z,-5.40
2018-03-19T02:39:53.208Z,-5.30
2018-03-19T02:42:22.584Z,-5.30
2018-03-19T02:44:50.874Z,-5.40
2018-03-19T02:47:19.192Z,-5.40
2018-03-19T02:49:47.495Z,-5.40
2018-03-19T02:52:15.910Z,-5.40
2018-03-19T02:54:44.191Z,-5.40
2018-03-19T02:57:12.505Z,-5.40
2018-03-19T02:59:40.907Z,-5.40
2018-03-19T03:02:09.509Z,-5.40
2018-03-19T03:04:38.426Z,-5.50
2018-03-19T03:07:06.960Z,-5.50
2018-03-19T03:09:37.382Z,-5.50
2018-03-19T03:12:07.020Z,-5.50
2018-03-19T03:14:35.924Z,-5.50
2018-03-19T03:17:04.548Z,-5.50
2018-03-19T03:19:32.886Z,-5.60
2018-03-19T03:22:01.462Z,-5.70
2018-03-19T03:24:29.843Z,-5.70
2018-03-19T03:26:58.658Z,-5.70
2018-03-19T03:29:26.948Z,-5.80
2018-03-19T03:31:55.301Z,-5.80
2018-03-19T03:34:25.090Z,-6.10
2018-03-19T03:36:53.515Z,-6.10
2018-03-19T03:39:22.725Z,-6.10
2018-03-19T03:41:51.043Z,-6.10
2018-03-19T03:44:20.183Z,-6.20
2018-03-19T03:46:48.478Z,-6.20
2018-03-19T03:49:16.799Z,-6.20
2018-03-19T03:51:45.082Z,-6.20
2018-03-19T03:54:13.393Z,-6.20
2018-03-19T03:56:41.707Z,-6.20
2018-03-19T03:59:10.027Z,-6.30
2018-03-19T04:01:39.310Z,-6.30
2018-03-19T04:04:07.700Z,-6.30
2018-03-19T04:06:36.108Z,-6.40
2018-03-19T04:09:04.634Z,-6.40
2018-03-19T04:11:34.661Z,-6.40
2018-03-19T04:14:03.862Z,-6.50
2018-03-19T04:16:32.446Z,-6.50
2018-03-19T04:19:00.886Z,-6.40
2018-03-19T04:21:29.235Z,-6.40
2018-03-19T04:23:57.517Z,-6.40
2018-03-19T04:26:25.838Z,-6.40
2018-03-19T04:28:54.925Z,-6.50
2018-03-19T04:31:23.242Z,-6.50
2018-03-19T04:33:51.776Z,-6.60
2018-03-19T04:36:20.963Z,-6.40
2018-03-19T04:38:49.262Z,-6.40
2018-03-19T04:41:17.588Z,-6.40
2018-03-19T04:43:45.901Z,-6.40
2018-03-19T04:46:14.983Z,-6.30
2018-03-19T04:48:43.298Z,-6.30
2018-03-19T04:51:11.579Z,-6.30
2018-03-19T04:53:39.892Z,-6.30
2018-03-19T04:56:08.175Z,-6.40
2018-03-19T04:58:36.628Z,-6.40
2018-03-19T05:01:06.379Z,-6.30
2018-03-19T05:03:34.994Z,-6.30
2018-03-19T05:06:04.016Z,-6.20
2018-03-19T05:08:32.519Z,-6.40
2018-03-19T05:11:01.038Z,-6.10
2018-03-19T05:13:30.670Z,-6.00
2018-03-19T05:15:58.995Z,-6.00
2018-03-19T05:18:27.282Z,-6.00
2018-03-19T05:20:55.915Z,-6.20
2018-03-19T05:23:24.718Z,-6.20
2018-03-19T05:25:53.862Z,-6.30
2018-03-19T05:28:22.466Z,-6.30
2018-03-19T05:30:50.860Z,-6.40
2018-03-19T05:33:19.210Z,-6.40
2018-03-19T05:35:48.264Z,-6.40
2018-03-19T05:38:16.579Z,-6.50
2018-03-19T05:40:44.871Z,-6.40
2018-03-19T05:43:13.193Z,-6.30
2018-03-19T05:45:41.473Z,-6.30
2018-03-19T05:48:09.791Z,-6.30
2018-03-19T05:50:38.218Z,-6.20
2018-03-19T05:53:06.594Z,-6.00
2018-03-19T05:55:35.216Z,-5.80
2018-03-19T05:58:04.070Z,-5.60
2018-03-19T06:00:33.267Z,-5.30
2018-03-19T06:03:01.903Z,-5.30
2018-03-19T06:05:30.229Z,-5.10
2018-03-19T06:07:58.534Z,-5.10
2018-03-19T06:10:26.863Z,-5.00
2018-03-19T06:12:55.187Z,-4.80
2018-03-19T06:15:23.475Z,-4.80
2018-03-19T06:17:51.934Z,-4.80
2018-03-19T06:20:20.878Z,-4.70
2018-03-19T06:22:49.210Z,-4.60
2018-03-19T06:25:18.322Z,-4.50
2018-03-19T06:27:46.621Z,-4.50
2018-03-19T06:30:14.948Z,-4.40
2018-03-19T06:32:43.230Z,-4.40
2018-03-19T06:35:11.719Z,-4.40
2018-03-19T06:37:39.998Z,-4.30
2018-03-19T06:40:08.287Z,-4.30
2018-03-19T06:42:36.649Z,-4.30
2018-03-19T06:45:05.022Z,-4.10
2018-03-19T06:47:34.148Z,-4.00
2018-03-19T06:50:03.313Z,-4.00
2018-03-19T06:52:32.498Z,-3.80
2018-03-19T06:55:02.233Z,-3.70
2018-03-19T06:57:30.589Z,-3.70
2018-03-19T06:59:58.990Z,-3.70
2018-03-19T07:02:28.042Z,-3.30
2018-03-19T07:04:56.334Z,-3.30
2018-03-19T07:07:24.660Z,-3.20
2018-03-19T07:09:53.178Z,-3.30
2018-03-19T07:12:21.522Z,-3.10
2018-03-19T07:14:50.603Z,-2.80
2018-03-19T07:19:53.623Z,-2.70
2018-03-19T07:22:21.958Z,-2.90
2018-03-19T07:24:50.343Z,-2.70
2018-03-19T07:27:18.671Z,-2.80
2018-03-19T07:29:47.015Z,-2.90
2018-03-19T07:32:15.379Z,-2.70
2018-03-19T07:34:43.764Z,-2.50
2018-03-19T07:37:12.790Z,-2.20
2018-03-19T07:39:41.115Z,-2.30
2018-03-19T07:42:09.455Z,-2.10
2018-03-19T07:44:37.779Z,-1.80
2018-03-19T07:47:06.138Z,-1.90
2018-03-19T07:49:35.309Z,-2.10
2018-03-19T07:52:03.615Z,-2.10
2018-03-19T07:54:31.962Z,-2.10
2018-03-19T07:57:01.052Z,-1.80
2018-03-19T07:59:29.388Z,-1.80
2018-03-19T08:01:58.437Z,-1.70
2018-03-19T08:04:26.764Z,-1.70
2018-03-19T08:06:55.049Z,-1.60
2018-03-19T08:09:23.367Z,-1.40
2018-03-19T08:11:51.662Z,-1.30
2018-03-19T08:14:20.010Z,-1.20
2018-03-19T08:16:49.187Z,-1.20
2018-03-19T08:19:17.606Z,-1.10
2018-03-19T08:21:45.926Z,-1.20
2018-03-19T08:24:14.215Z,-1.40
2018-03-19T08:26:44.151Z,-1.30
2018-03-19T08:29:12.454Z,-1.30
2018-03-19T08:31:40.779Z,-1.20
2018-03-19T08:34:09.067Z,-0.90
2018-03-19T08:36:37.455Z,-0.90
2018-03-19T08:39:05.768Z,-0.80
2018-03-19T08:41:35.007Z,-0.60
2018-03-19T08:44:03.541Z,-0.70
2018-03-19T08:46:32.087Z,-0.70
2018-03-19T08:49:00.422Z,-0.50
2018-03-19T08:51:29.519Z,-0.70
2018-03-19T08:53:57.917Z,-0.70
2018-03-19T08:56:26.208Z,-0.50
2018-03-19T08:58:54.499Z,-0.20
2018-03-19T09:01:22.821Z,-0.20
2018-03-19T09:03:51.111Z,-0.40
2018-03-19T09:06:19.413Z,-0.50
2018-03-19T09:08:47.766Z,-0.30
2018-03-19T09:11:16.058Z,-0.20
2018-03-19T09:13:44.407Z,-0.30
2018-03-19T09:16:13.483Z,0.00
2018-03-19T09:18:41.804Z,0.00
2018-03-19T09:21:10.182Z,0.10
2018-03-19T09:23:38.583Z,0.00
2018-03-19T09:26:06.858Z,0.10
2018-03-19T09:28:35.155Z,0.30
2018-03-19T09:31:03.619Z,0.40
2018-03-19T09:33:32.091Z,0.10
2018-03-19T09:36:00.398Z,0.10
2018-03-19T09:38:28.791Z,0.20
2018-03-19T09:40:57.098Z,0.50
2018-03-19T09:43:25.374Z,0.50
2018-03-19T09:45:53.712Z,0.50
2018-03-19T09:48:22.015Z,0.60
2018-03-19T09:50:50.361Z,0.70
2018-03-19T09:53:19.468Z,0.70
2018-03-19T09:55:47.743Z,0.60
2018-03-19T09:58:16.057Z,0.90
2018-03-19T10:00:44.642Z,1.10
2018-03-19T10:03:12.918Z,1.20
2018-03-19T10:05:41.209Z,1.10
2018-03-19T10:08:09.522Z,1.40
2018-03-19T10:10:37.807Z,1.30
2018-03-19T10:13:06.131Z,1.40
2018-03-19T10:15:34.411Z,1.10
2018-03-19T10:18:02.798Z,1.30
2018-03-19T10:20:31.215Z,1.30
2018-03-19T10:22:59.551Z,1.10
2018-03-19T10:25:27.834Z,1.30
2018-03-19T10:27:56.158Z,1.70
2018-03-19T10:30:24.471Z,1.80
2018-03-19T10:32:52.755Z,1.60
2018-03-19T10:35:21.099Z,1.50
2018-03-19T10:37:49.411Z,1.80
2018-03-19T10:40:18.750Z,1.90
2018-03-19T10:42:47.081Z,1.90
2018-03-19T10:45:15.378Z,1.60
2018-03-19T10:47:43.877Z,1.60
2018-03-19T10:50:12.167Z,1.90
2018-03-19T10:52:40.451Z,1.60
2018-03-19T10:55:09.538Z,1.90
2018-03-19T10:57:37.857Z,1.90
2018-03-19T11:00:06.163Z,1.80
2018-03-19T11:02:54.367Z,1.90
2018-03-19T11:05:28.310Z,1.70
2018-03-19T11:08:02.379Z,1.80
2018-03-19T11:10:30.780Z,1.90
2018-03-19T11:13:00.311Z,2.30
2018-03-19T11:15:29.130Z,2.30
2018-03-19T11:17:57.524Z,2.40
2018-03-19T11:20:25.943Z,2.40
2018-03-19T11:22:54.254Z,2.30
2018-03-19T11:25:22.537Z,2.50
2018-03-19T11:27:50.958Z,2.30
2018-03-19T11:30:19.426Z,2.30
2018-03-19T11:32:47.848Z,2.40
2018-03-19T11:35:16.131Z,2.70
2018-03-19T11:37:44.556Z,2.60
2018-03-19T11:40:12.875Z,2.40
2018-03-19T11:42:41.167Z,2.20
2018-03-19T11:45:09.487Z,2.50
2018-03-19T11:47:37.774Z,2.60
2018-03-19T11:50:06.127Z,2.40
2018-03-19T11:52:34.794Z,2.50
2018-03-19T11:55:03.931Z,2.90
2018-03-19T11:57:32.506Z,2.80
2018-03-19T12:00:01.020Z,2.70
2018-03-19T12:02:30.147Z,2.90
2018-03-19T12:04:58.462Z,2.90
2018-03-19T12:07:26.745Z,2.80
2018-03-19T12:09:55.065Z,3.00
2018-03-19T12:12:23.347Z,2.90
2018-03-19T12:14:51.677Z,2.60
2018-03-19T12:17:20.056Z,2.80
2018-03-19T12:19:48.338Z,2.90
2018-03-19T12:22:17.511Z,3.20
2018-03-19T12:24:46.558Z,3.00
2018-03-19T12:27:14.883Z,3.00
2018-03-19T12:29:43.302Z,2.80
2018-03-19T12:32:11.597Z,2.70
2018-03-19T12:34:40.011Z,3.10
2018-03-19T12:37:08.336Z,3.10
2018-03-19T12:39:36.760Z,3.10
2018-03-19T12:42:05.884Z,2.90
2018-03-19T12:44:34.971Z,2.80
2018-03-19T12:47:04.696Z,2.70
2018-03-19T12:49:33.041Z,2.70
2018-03-19T12:52:02.180Z,3.20
2018-03-19T12:54:30.741Z,3.20
2018-03-19T12:57:00.662Z,3.20
2018-03-19T12:59:28.997Z,3.20
2018-03-19T13:01:58.051Z,3.20
2018-03-19T13:04:26.479Z,3.20
2018-03-19T13:06:54.766Z,3.10
2018-03-19T13:09:23.209Z,3.00
2018-03-19T13:11:51.568Z,3.30
2018-03-19T13:14:19.995Z,3.20
2018-03-19T13:16:48.314Z,3.40
2018-03-19T13:19:16.631Z,3.60
2018-03-19T13:21:45.016Z,3.50
2018-03-19T13:24:13.293Z,3.50
2018-03-19T13:26:42.686Z,3.70
2018-03-19T13:29:11.059Z,3.60
2018-03-19T13:31:40.694Z,3.70
2018-03-19T13:34:09.467Z,3.60
2018-03-19T13:36:39.422Z,3.40
2018-03-19T13:39:08.481Z,3.40
2018-03-19T13:41:38.698Z,3.70
2018-03-19T13:44:07.920Z,3.50
2018-03-19T13:46:37.443Z,3.50
2018-03-19T13:49:07.103Z,3.40
2018-03-19T13:51:35.902Z,3.40
2018-03-19T13:54:04.596Z,3.20
2018-03-19T13:56:33.182Z,3.00
2018-03-19T13:59:01.653Z,3.30
2018-03-19T14:01:30.029Z,3.30
2018-03-19T14:03:58.395Z,3.40
2018-03-19T14:06:26.721Z,3.50
2018-03-19T14:08:55.043Z,3.50
2018-03-19T14:11:23.616Z,3.40
2018-03-19T14:13:52.715Z,3.50
2018-03-19T14:16:21.327Z,3.40
2018-03-19T14:18:49.629Z,3.40
2018-03-19T14:21:18.043Z,3.60
2018-03-19T14:23:46.366Z,3.60
2018-03-19T14:26:14.656Z,3.60
2018-03-19T14:28:43.291Z,3.50
2018-03-19T14:31:11.582Z,3.60
2018-03-19T14:33:39.862Z,3.50
2018-03-19T14:36:08.445Z,3.60
2018-03-19T14:38:37.101Z,3.60
2018-03-19T14:41:05.483Z,3.50
2018-03-19T14:43:34.670Z,3.70
2018-03-19T14:46:03.145Z,3.70
2018-03-19T14:48:31.804Z,3.70
2018-03-19T14:51:00.183Z,3.70
2018-03-19T14:53:28.847Z,3.70
2018-03-19T14:55:57.144Z,3.50
2018-03-19T14:58:25.560Z,3.40
2018-03-19T15:00:54.084Z,3.40
2018-03-19T15:03:23.580Z,3.60
2018-03-19T15:05:52.229Z,3.50
2018-03-19T15:08:20.510Z,3.60
2018-03-19T15:10:48.882Z,3.50
2018-03-19T15:13:18.666Z,3.50
2018-03-19T15:15:46.969Z,3.50
2018-03-19T15:18:15.298Z,3.50
2018-03-19T15:20:44.345Z,3.50
2018-03-19T15:23:12.662Z,3.50
2018-03-19T15:25:40.946Z,3.40
2018-03-19T15:28:09.397Z,3.40
2018-03-19T15:30:38.034Z,3.40
2018-03-19T15:33:06.779Z,3.30
2018-03-19T15:35:35.469Z,3.40
2018-03-19T15:38:03.863Z,3.50
2018-03-19T15:40:33.376Z,3.50
2018-03-19T15:43:02.176Z,3.50
2018-03-19T15:45:32.577Z,3.60
2018-03-19T15:48:01.283Z,3.50
2018-03-19T15:50:29.776Z,3.40
2018-03-19T15:52:58.480Z,3.50
2018-03-19T15:55:26.828Z,3.40
2018-03-19T15:57:55.483Z,3.40
2018-03-19T16:00:23.782Z,3.40
2018-03-19T16:02:52.103Z,3.30
2018-03-19T16:05:20.849Z,3.30
2018-03-19T16:07:49.187Z,3.20
2018-03-19T16:10:17.515Z,3.30
2018-03-19T16:12:45.836Z,3.20
2018-03-19T16:15:14.164Z,3.20
2018-03-19T16:17:42.681Z,3.20
2018-03-19T16:20:11.003Z,3.20
2018-03-19T16:22:39.330Z,3.10
2018-03-19T16:25:07.794Z,3.20
2018-03-19T16:27:36.256Z,3.20
2018-03-19T16:30:04.814Z,3.10
2018-03-19T16:32:33.409Z,3.10
2018-03-19T16:35:02.033Z,3.10
2018-03-19T16:37:31.207Z,2.90
2018-03-19T16:39:59.635Z,2.90
2018-03-19T16:42:28.379Z,2.80
2018-03-19T16:44:56.663Z,2.80
2018-03-19T16:47:24.991Z,2.80
2018-03-19T16:49:53.512Z,2.70
2018-03-19T16:52:21.979Z,2.60
2018-03-19T16:54:50.343Z,2.50
2018-03-19T16:57:18.671Z,2.60
2018-03-19T16:59:46.955Z,2.50
2018-03-19T17:02:15.286Z,2.40
2018-03-19T17:04:43.612Z,2.40
2018-03-19T17:07:11.960Z,2.40
2018-03-19T17:09:40.611Z,2.40
2018-03-19T17:12:10.301Z,2.40
2018-03-19T17:14:39.767Z,2.30
2018-03-19T17:17:08.355Z,2.30
2018-03-19T17:19:36.717Z,2.40
2018-03-19T17:22:05.492Z,2.40
2018-03-19T17:24:34.615Z,2.40
2018-03-19T17:27:03.214Z,2.40
2018-03-19T17:29:32.647Z,2.20
2018-03-19T17:32:01.056Z,2.20
2018-03-19T17:34:29.406Z,2.10
2018-03-19T17:36:57.759Z,2.00
2018-03-19T17:39:26.083Z,1.90
2018-03-19T17:41:54.388Z,1.80
2018-03-19T17:44:22.806Z,1.70
2018-03-19T17:46:52.017Z,1.40
2018-03-19T17:49:20.659Z,1.40
2018-03-19T17:51:49.019Z,1.30
2018-03-19T17:54:17.306Z,1.20
2018-03-19T17:56:45.827Z,1.10
2018-03-19T17:59:14.111Z,0.90
2018-03-19T18:01:42.390Z,0.80
2018-03-19T18:04:11.041Z,0.70
2018-03-19T18:06:39.535Z,0.80
2018-03-19T18:09:07.945Z,0.60
2018-03-19T18:11:36.557Z,0.70
2018-03-19T18:14:05.263Z,0.50
2018-03-19T18:16:33.586Z,0.40
2018-03-19T18:19:01.990Z,0.20
2018-03-19T18:21:31.495Z,0.00
2018-03-19T18:23:59.865Z,0.00
2018-03-19T18:26:28.195Z,-0.10
2018-03-19T18:28:56.494Z,-0.30
2018-03-19T18:31:24.947Z,-0.40
2018-03-19T18:33:54.406Z,-0.30
2018-03-19T18:36:23.044Z,-0.30
2018-03-19T18:38:51.438Z,-0.40
2018-03-19T18:41:19.961Z,-0.50
2018-03-19T18:43:49.046Z,-0.80
2018-03-19T18:46:17.343Z,-0.80
2018-03-19T18:48:45.691Z,-0.90
2018-03-19T18:51:15.042Z,-0.90
2018-03-19T18:53:43.339Z,-0.90
2018-03-19T18:56:11.634Z,-0.70
2018-03-19T18:58:40.132Z,-0.60
2018-03-19T19:01:08.491Z,-0.60
2018-03-19T19:03:37.145Z,-0.60
2018-03-19T19:06:05.843Z,-0.60
2018-03-19T19:08:34.575Z,-0.80
2018-03-19T19:11:03.086Z,-1.00
2018-03-19T19:13:31.964Z,-1.10
2018-03-19T19:16:00.275Z,-1.20
2018-03-19T19:18:28.691Z,-1.30
2018-03-19T19:20:57.014Z,-1.30
2018-03-19T19:23:26.086Z,-1.40
2018-03-19T19:25:54.386Z,-1.40
2018-03-19T19:28:22.790Z,-1.50
2018-03-19T19:30:51.429Z,-1.50
2018-03-19T19:33:19.778Z,-1.50
2018-03-19T19:35:48.123Z,-1.50
2018-03-19T19:38:16.646Z,-1.50
2018-03-19T19:40:44.972Z,-1.60
2018-03-19T19:43:13.263Z,-1.60
2018-03-19T19:45:41.852Z,-1.70
2018-03-19T19:48:10.146Z,-1.70
2018-03-19T19:50:38.583Z,-1.70
2018-03-19T19:53:07.778Z,-1.70
2018-03-19T19:55:36.550Z,-1.70
2018-03-19T19:58:05.189Z,-1.80
2018-03-19T20:00:33.855Z,-1.90
2018-03-19T20:03:03.037Z,-1.70
2018-03-19T20:05:32.462Z,-1.70
2018-03-19T20:08:01.456Z,-1.70
2018-03-19T20:10:29.815Z,-1.90
2018-03-19T20:12:58.149Z,-1.90
2018-03-19T20:15:26.584Z,-2.00
2018-03-19T20:17:54.938Z,-2.00
2018-03-19T20:20:24.266Z,-2.20
2018-03-19T20:22:53.442Z,-2.20
2018-03-19T20:25:23.262Z,-2.20
2018-03-19T20:27:52.656Z,-2.20
2018-03-19T20:30:21.869Z,-2.30
2018-03-19T20:32:50.207Z,-2.30
2018-03-19T20:35:18.543Z,-2.30
2018-03-19T20:37:46.842Z,-2.50
2018-03-19T20:40:15.128Z,-2.60
2018-03-19T20:42:43.441Z,-2.60
2018-03-19T20:45:11.762Z,-2.60
2018-03-19T20:47:40.329Z,-2.70
2018-03-19T20:50:08.852Z,-2.60
2018-03-19T20:52:38.517Z,-2.60
2018-03-19T20:55:06.935Z,-2.60
2018-03-19T20:57:35.366Z,-2.60
2018-03-19T21:00:04.298Z,-2.60
2018-03-19T21:02:32.716Z,-2.60
2018-03-19T21:05:01.200Z,-2.60
2018-03-19T21:07:29.554Z,-2.70
2018-03-19T21:09:57.878Z,-2.40
2018-03-19T21:12:26.967Z,-2.00
2018-03-19T21:14:55.363Z,-2.00
2018-03-19T21:17:23.651Z,-2.00
2018-03-19T21:19:52.044Z,-2.10
2018-03-19T21:22:20.459Z,-2.20
2018-03-19T21:24:48.918Z,-2.10
2018-03-19T21:27:17.979Z,-2.80
2018-03-19T21:29:46.276Z,-2.80
2018-03-19T21:32:14.606Z,-2.80
2018-03-19T21:34:43.007Z,-2.80
2018-03-19T21:37:11.297Z,-2.70
2018-03-19T21:39:39.583Z,-2.50
2018-03-19T21:42:08.747Z,-2.50
2018-03-19T21:44:37.187Z,-2.50
2018-03-19T21:47:05.708Z,-2.60
2018-03-19T21:49:34.096Z,-2.90
2018-03-19T21:52:02.642Z,-2.90
2018-03-19T21:54:31.252Z,-2.80
2018-03-19T21:56:59.543Z,-2.70
2018-03-19T21:59:29.082Z,-2.80
2018-03-19T22:01:57.407Z,-2.80
2018-03-19T22:04:25.735Z,-2.90
2018-03-19T22:06:54.826Z,-3.00
2018-03-19T22:09:23.151Z,-3.00
2018-03-19T22:11:51.721Z,-2.90
2018-03-19T22:14:20.346Z,-3.10
2018-03-19T22:16:49.560Z,-3.20
2018-03-19T22:19:18.171Z,-3.20
2018-03-19T22:21:46.470Z,-3.20
2018-03-19T22:24:14.766Z,-3.00
2018-03-19T22:26:43.099Z,-3.00
2018-03-19T22:29:11.396Z,-3.20
2018-03-19T22:31:39.718Z,-3.30
2018-03-19T22:34:08.874Z,-3.50
2018-03-19T22:36:37.171Z,-3.50
2018-03-19T22:39:05.720Z,-3.60
2018-03-19T22:41:34.909Z,-3.50
2018-03-19T22:44:03.411Z,-3.50
2018-03-19T22:46:32.145Z,-3.50
2018-03-19T22:49:01.378Z,-3.60
2018-03-19T22:51:30.523Z,-3.50
2018-03-19T22:53:58.902Z,-3.50
2018-03-19T22:56:28.011Z,-3.30
2018-03-19T22:58:56.347Z,-3.50
2018-03-19T23:01:24.646Z,-3.40
2018-03-19T23:03:53.235Z,-3.40
2018-03-19T23:06:21.740Z,-3.20
2018-03-19T23:08:50.386Z,-3.10
2018-03-19T23:11:18.742Z,-3.10
2018-03-19T23:13:47.026Z,-3.00
2018-03-19T23:16:15.343Z,-3.30
2018-03-19T23:18:43.636Z,-3.40
2018-03-19T23:21:11.955Z,-3.60
2018-03-19T23:23:40.283Z,-3.60
2018-03-19T23:26:10.082Z,-3.70
2018-03-19T23:28:38.379Z,-3.70
2018-03-19T23:31:06.775Z,-3.80
2018-03-19T23:33:35.310Z,-3.90
2018-03-19T23:36:03.886Z,-3.90
2018-03-19T23:38:33.144Z,-3.90
2018-03-19T23:41:01.548Z,-3.90
2018-03-19T23:43:31.059Z,-4.00
2018-03-19T23:46:00.219Z,-4.10
2018-03-19T23:48:28.514Z,-4.20
2018-03-19T23:50:56.843Z,-4.20
2018-03-19T23:53:25.894Z,-4.20
2018-03-19T23:55:54.174Z,-4.20
2018-03-19T23:58:23.269Z,-4.10
